• Join FlightAware (Why Join?)
  • Login
  • US Flag 
02:23PM EDT


 

Airport Tracker/Info


-or-


 

Live Flight TrackerFlight Track Log ✈ CTL18 ✈ 15-Apr-2013 ✈ KYIP - KBKL

Flight Track Log - Related Links

Times and Time Zones

All times are in EDT time to prevent confusion due to time zone crossing. See the CTL18 flight status page for this flight to view local times or setup timezone preferences in your user account.

Time Position Orientation Groundspeed Altitude Reporting Facility
EDT Latitude Longitude Course Direction KTS MPH feet Rate Location/Type
09:45PM 42.2239 -83.5497 227° Southwest 105 121 1,200  Level Cleveland Center
09:45PM 42.2086 -83.5717 227° Southwest 99 114 2,100 960 Climbing Cleveland Center
09:47PM 42.1853 -83.5956 217° Southwest 101 116 3,000 420 Climbing Cleveland Center
09:48PM 42.1553 -83.6167 208° Southwest 151 174 3,000  Level Cleveland Center
09:48PM 42.1181 -83.6094 172° South 151 174 3,000  Level Cleveland Center
09:49PM 42.0744 -83.6017 172° South 154 177 3,000  Level Cleveland Center
09:50PM 42.0569 -83.5506 115° Southeast 177 204 3,000 -60 Level Cleveland Center
09:51PM 42.0378 -83.4881 112° Southeast 178 205 2,900  Descending Cleveland Center
09:52PM 42.0183 -83.4283 114° Southeast 175 201 3,100 360 Climbing Cleveland Center
09:53PM 42.0031 -83.3775 112° Southeast 145 167 3,700 660 Climbing Cleveland Center
09:54PM 41.9897 -83.3267 109° East 147 169 4,400 540 Climbing Cleveland Center
09:55PM 41.9742 -83.2728 111° Southeast 151 174 4,800 240 Climbing Cleveland Center
09:56PM 41.9547 -83.2106 113° Southeast 173 199 5,000 60 Climbing Cleveland Center
09:58PM 41.9375 -83.1458 110° East 173 199 5,000  Level Cleveland Center
09:59PM 41.9161 -83.0778 113° Southeast 174 200 5,000  Level Cleveland Center
10:00PM 41.8986 -83.0158 111° Southeast 174 200 5,000  Level Cleveland Center
10:01PM 41.8792 -82.9536 113° Southeast 174 200 5,000  Level Cleveland Center
10:02PM 41.8619 -82.8833 108° East 175 201 5,000  Level Cleveland Center
10:03PM 41.8464 -82.8214 109° East 174 200 5,000  Level Cleveland Center
10:04PM 41.8244 -82.7650 118° Southeast 167 192 5,000  Level Cleveland Center
10:05PM 41.8111 -82.7089 108° East 170 196 5,000  Level Cleveland Center
10:06PM 41.7933 -82.6414 109° East 167 192 5,000  Level Cleveland Center
10:07PM 41.7736 -82.5767 112° Southeast 168 193 5,000  Level Cleveland Center
10:08PM 41.7619 -82.5317 109° East 168 193 5,000  Level Cleveland Center
10:09PM 41.7422 -82.4644 111° Southeast 169 194 5,000  Level Cleveland Center
10:10PM 41.7225 -82.4053 114° Southeast 169 194 5,000 -60 Level Cleveland Center
10:11PM 41.7108 -82.3494 106° East 172 198 4,900 -420 Descending Cleveland Center
10:12PM 41.6950 -82.2822 107° East 190 219 4,300 -540 Descending Cleveland Center
10:13PM 41.6772 -82.2206 111° Southeast 184 212 3,900 -420 Descending Cleveland Center
10:14PM 41.6614 -82.1592 109° East 177 204 3,500 -300 Descending Cleveland Center
10:15PM 41.6458 -82.0864 106° East 174 200 3,300 -360 Descending Cleveland Center
10:16PM 41.6319 -82.0250 107° East 169 194 2,800 -480 Descending Cleveland Center
10:17PM 41.6181 -81.9636 107° East 162 186 2,400 -360 Descending Cleveland Center
10:18PM 41.6061 -81.9106 107° East 154 177 2,100 -360 Descending Cleveland Center
10:19PM 41.5922 -81.8686 114° Southeast 149 171 1,800 -180 Descending Cleveland Center
10:20PM 41.5739 -81.8183 116° Southeast 144 166 1,800  Level Cleveland Center
10:21PM 41.5578 -81.7653 112° Southeast 137 158 1,800 -180 Level Cleveland Center
10:22PM 41.5478 -81.7178 106° East 136 157 1,500 -360 Descending Cleveland Center
10:23PM 41.5358 -81.6789 112° Southeast 118 136 1,100 -420 Descending Cleveland Center
10:25PM 41.5167 -81.6667 108° East  Level FlightAware Approximate
10:32PM 41.5175 -81.6833 108° East  Level Estimated